createdAt,value
2023-02-10T00:01:10.558Z,0.00
2023-02-10T00:03:38.552Z,-0.10
2023-02-10T00:06:07.152Z,-0.10
2023-02-10T00:08:35.057Z,0.00
2023-02-10T00:11:09.189Z,0.10
2023-02-10T00:13:36.772Z,0.00
2023-02-10T00:16:05.438Z,0.00
2023-02-10T00:18:33.807Z,0.00
2023-02-10T00:21:10.416Z,0.00
2023-02-10T00:23:37.958Z,0.00
2023-02-10T00:26:06.766Z,0.00
2023-02-10T00:28:35.571Z,0.00
2023-02-10T00:31:07.452Z,0.00
2023-02-10T00:33:35.042Z,0.10
2023-02-10T00:36:11.209Z,0.00
2023-02-10T00:38:39.419Z,0.00
2023-02-10T00:41:11.937Z,0.00
2023-02-10T00:43:43.488Z,0.00
2023-02-10T00:46:15.960Z,0.00
2023-02-10T00:48:44.614Z,-0.10
2023-02-10T00:51:12.733Z,-0.10
2023-02-10T00:53:40.102Z,0.00
2023-02-10T00:56:07.853Z,-0.10
2023-02-10T00:58:35.772Z,0.00
2023-02-10T01:01:03.853Z,-0.10
2023-02-10T01:03:31.208Z,-0.10
2023-02-10T01:05:58.651Z,-0.10
2023-02-10T01:08:25.842Z,-0.10
2023-02-10T01:11:07.710Z,-0.10
2023-02-10T01:13:36.326Z,-0.10
2023-02-10T01:16:14.416Z,-0.20
2023-02-10T01:18:42.809Z,-0.20
2023-02-10T01:21:14.913Z,-0.20
2023-02-10T01:23:44.209Z,-0.10
2023-02-10T01:26:12.466Z,-0.20
2023-02-10T01:28:41.499Z,-0.20
2023-02-10T01:31:15.383Z,-0.20
2023-02-10T01:33:43.047Z,-0.20
2023-02-10T01:36:13.311Z,-0.20
2023-02-10T01:38:41.165Z,-0.20
2023-02-10T01:41:09.276Z,-0.30
2023-02-10T01:44:02.774Z,-0.30
2023-02-10T01:46:31.857Z,-0.30
2023-02-10T01:49:04.954Z,-0.30
2023-02-10T01:51:39.284Z,-0.30
2023-02-10T01:54:14.018Z,-0.30
2023-02-10T01:56:42.701Z,-0.30
2023-02-10T01:59:10.588Z,-0.40
2023-02-10T02:01:38.000Z,-0.40
2023-02-10T02:04:05.405Z,-0.40
2023-02-10T02:06:35.411Z,-0.40
2023-02-10T02:09:03.551Z,-0.40
2023-02-10T02:11:46.458Z,-0.40
2023-02-10T02:14:26.175Z,-0.50
2023-02-10T02:17:03.244Z,-0.50
2023-02-10T02:20:22.970Z,-0.50
2023-02-10T02:23:23.738Z,-0.50
2023-02-10T02:25:57.162Z,-0.50
2023-02-10T02:28:55.938Z,-0.50
2023-02-10T02:31:52.510Z,-0.50
2023-02-10T02:34:40.274Z,-0.50
2023-02-10T02:37:26.199Z,-0.50
2023-02-10T02:39:56.684Z,-0.50
2023-02-10T02:42:25.257Z,-0.50
2023-02-10T02:44:56.943Z,-0.50
2023-02-10T02:47:33.696Z,-0.50
2023-02-10T02:50:18.169Z,-0.50
2023-02-10T02:52:58.813Z,-0.50
2023-02-10T02:55:50.282Z,-0.50
2023-02-10T02:58:42.223Z,-0.50
2023-02-10T03:01:36.601Z,-0.40
2023-02-10T03:04:04.812Z,-0.50
2023-02-10T03:06:34.390Z,-0.50
2023-02-10T03:09:02.004Z,-0.50
2023-02-10T03:11:29.225Z,-0.50
2023-02-10T03:13:56.782Z,-0.50
2023-02-10T03:16:23.980Z,-0.60
2023-02-10T03:18:51.301Z,-0.60
2023-02-10T03:21:18.811Z,-0.60
2023-02-10T03:23:46.227Z,-0.70
2023-02-10T03:26:13.808Z,-0.70
2023-02-10T03:28:41.167Z,-0.80
2023-02-10T03:31:09.173Z,-0.70
2023-02-10T03:33:36.765Z,-0.70
2023-02-10T03:36:04.190Z,-0.70
2023-02-10T03:38:31.403Z,-0.70
2023-02-10T03:40:58.641Z,-0.60
2023-02-10T03:43:25.843Z,-0.60
2023-02-10T03:45:53.023Z,-0.60
2023-02-10T03:48:20.370Z,-0.60
2023-02-10T03:50:49.144Z,-0.70
2023-02-10T03:53:16.338Z,-0.80
2023-02-10T03:55:43.485Z,-0.80
2023-02-10T03:58:10.712Z,-0.80
2023-02-10T04:00:37.962Z,-0.80
2023-02-10T04:03:05.160Z,-0.70
2023-02-10T04:05:32.390Z,-0.80
2023-02-10T04:07:59.584Z,-0.80
2023-02-10T04:10:27.010Z,-0.80
2023-02-10T04:12:54.291Z,-0.80
2023-02-10T04:15:21.524Z,-1.00
2023-02-10T04:17:48.810Z,-1.00
2023-02-10T04:20:16.936Z,-1.00
2023-02-10T04:22:44.509Z,-1.10
2023-02-10T04:25:12.044Z,-1.20
2023-02-10T04:27:39.809Z,-1.10
2023-02-10T04:30:07.697Z,-1.20
2023-02-10T04:32:35.204Z,-1.20
2023-02-10T04:35:03.216Z,-1.30
2023-02-10T04:37:30.626Z,-1.40
2023-02-10T04:39:57.767Z,-1.40
2023-02-10T04:42:31.147Z,-1.30
2023-02-10T04:44:59.734Z,-1.30
2023-02-10T04:47:28.837Z,-1.30
2023-02-10T04:49:56.904Z,-1.40
2023-02-10T04:52:24.385Z,-1.40
2023-02-10T04:54:51.724Z,-1.30
2023-02-10T04:57:18.968Z,-1.20
2023-02-10T04:59:46.501Z,-1.30
2023-02-10T05:02:13.754Z,-1.30
2023-02-10T05:04:42.015Z,-1.30
2023-02-10T05:07:10.485Z,-1.30
2023-02-10T05:09:37.664Z,-1.30
2023-02-10T05:12:05.026Z,-1.40
2023-02-10T05:14:32.263Z,-1.30
2023-02-10T05:16:59.473Z,-1.40
2023-02-10T05:19:26.755Z,-1.60
2023-02-10T05:21:53.923Z,-1.70
2023-02-10T05:24:21.176Z,-1.70
2023-02-10T05:26:48.427Z,-1.80
2023-02-10T05:29:15.801Z,-1.80
2023-02-10T05:31:43.000Z,-1.70
2023-02-10T05:34:10.500Z,-1.60
2023-02-10T05:36:37.787Z,-1.50
2023-02-10T05:39:23.691Z,-1.50
2023-02-10T05:41:52.640Z,-1.40
2023-02-10T05:44:20.309Z,-1.40
2023-02-10T05:46:47.462Z,-1.40
2023-02-10T05:49:14.864Z,-1.40
2023-02-10T05:51:42.145Z,-1.40
2023-02-10T05:54:10.181Z,-1.40
2023-02-10T05:56:37.752Z,-1.40
2023-02-10T05:59:05.806Z,-1.30
2023-02-10T06:01:34.347Z,-1.30
2023-02-10T06:04:01.656Z,-1.30
2023-02-10T06:06:28.984Z,-1.30
2023-02-10T06:08:56.299Z,-1.30
2023-02-10T06:11:23.791Z,-1.20
2023-02-10T06:13:51.045Z,-1.20
2023-02-10T06:16:18.271Z,-1.20
2023-02-10T06:18:48.667Z,-1.20
2023-02-10T06:21:17.056Z,-1.30
2023-02-10T06:23:44.746Z,-1.40
2023-02-10T06:26:11.947Z,-1.50
2023-02-10T06:28:39.198Z,-1.50
2023-02-10T06:31:08.373Z,-1.50
2023-02-10T06:33:36.465Z,-1.40
2023-02-10T06:36:07.083Z,-1.40
2023-02-10T06:38:35.127Z,-1.30
2023-02-10T06:41:02.786Z,-1.30
2023-02-10T06:43:30.302Z,-1.20
2023-02-10T06:45:57.929Z,-1.10
2023-02-10T06:48:25.376Z,-1.00
2023-02-10T06:50:53.699Z,-0.90
2023-02-10T06:53:21.447Z,-0.90
2023-02-10T06:55:48.950Z,-0.90
2023-02-10T06:58:17.515Z,-0.80
2023-02-10T07:00:44.815Z,-0.70
2023-02-10T07:03:15.516Z,-0.70
2023-02-10T07:05:43.389Z,-0.70
2023-02-10T07:08:10.620Z,-0.70
2023-02-10T07:10:38.208Z,-0.70
2023-02-10T07:13:05.608Z,-0.60
2023-02-10T07:15:32.783Z,-0.60
2023-02-10T07:17:59.950Z,-0.70
2023-02-10T07:20:27.175Z,-0.70
2023-02-10T07:22:54.519Z,-0.70
2023-02-10T07:25:21.996Z,-0.70
2023-02-10T07:27:49.275Z,-0.70
2023-02-10T07:30:16.474Z,-0.70
2023-02-10T07:32:45.407Z,-0.60
2023-02-10T07:35:12.873Z,-0.60
2023-02-10T07:37:40.581Z,-0.60
2023-02-10T07:40:08.642Z,-0.70
2023-02-10T07:42:37.025Z,-0.60
2023-02-10T07:45:37.455Z,-0.60
2023-02-10T07:48:04.654Z,-0.60
2023-02-10T07:50:34.506Z,-0.60
2023-02-10T07:53:02.378Z,-0.70
2023-02-10T07:55:29.517Z,-0.60
2023-02-10T07:57:56.865Z,-0.60
2023-02-10T08:00:24.176Z,-0.50
2023-02-10T08:02:51.402Z,-0.50
2023-02-10T08:05:18.737Z,-0.50
2023-02-10T08:07:46.034Z,-0.50
2023-02-10T08:10:13.333Z,-0.60
2023-02-10T08:12:41.674Z,-0.50
2023-02-10T08:15:09.286Z,-0.50
2023-02-10T08:17:37.973Z,-0.40
2023-02-10T08:20:08.799Z,-0.40
2023-02-10T08:22:36.171Z,-0.30
2023-02-10T08:25:04.434Z,-0.30
2023-02-10T08:27:31.857Z,-0.20
2023-02-10T08:29:59.263Z,-0.10
2023-02-10T08:32:26.699Z,-0.10
2023-02-10T08:34:53.983Z,0.00
2023-02-10T08:37:22.432Z,0.00
2023-02-10T08:39:49.794Z,0.10
2023-02-10T08:42:17.243Z,0.20
2023-02-10T08:44:45.088Z,0.20
2023-02-10T08:47:15.644Z,0.30
2023-02-10T08:49:43.486Z,0.40
2023-02-10T08:52:10.992Z,0.50
2023-02-10T08:54:38.296Z,0.40
2023-02-10T08:57:05.919Z,0.50
2023-02-10T08:59:35.202Z,0.50
2023-02-10T09:02:02.897Z,0.50
2023-02-10T09:04:30.066Z,0.50
2023-02-10T09:06:57.368Z,0.60
2023-02-10T09:09:25.865Z,0.70
2023-02-10T09:11:54.660Z,0.70
2023-02-10T09:14:21.881Z,0.80
2023-02-10T09:16:51.615Z,0.70
2023-02-10T09:19:21.176Z,0.80
2023-02-10T09:21:48.460Z,0.90
2023-02-10T09:24:16.528Z,1.00
2023-02-10T09:26:44.952Z,1.00
2023-02-10T09:29:13.298Z,1.00
2023-02-10T09:31:40.773Z,1.10
2023-02-10T09:34:08.321Z,1.10
2023-02-10T09:36:35.636Z,1.20
2023-02-10T09:39:03.062Z,1.20
2023-02-10T09:41:36.136Z,1.20
2023-02-10T09:44:17.371Z,1.30
2023-02-10T09:46:56.794Z,1.30
2023-02-10T09:49:53.492Z,1.40
2023-02-10T09:52:42.760Z,1.40
2023-02-10T09:55:30.180Z,1.40
2023-02-10T09:58:24.602Z,1.50
2023-02-10T10:01:02.745Z,1.50
2023-02-10T10:03:59.761Z,1.60
2023-02-10T10:06:39.640Z,1.60
2023-02-10T10:09:26.688Z,1.70
2023-02-10T10:11:55.660Z,1.70
2023-02-10T10:14:28.571Z,1.70
2023-02-10T10:16:56.608Z,1.80
2023-02-10T10:20:02.256Z,1.80
2023-02-10T10:23:01.834Z,1.80
2023-02-10T10:26:05.789Z,1.80
2023-02-10T10:28:54.593Z,1.90
2023-02-10T10:31:30.412Z,1.90
2023-02-10T10:34:16.333Z,2.00
2023-02-10T10:36:47.165Z,2.00
2023-02-10T10:39:49.239Z,2.00
2023-02-10T10:42:22.419Z,2.00
2023-02-10T10:44:51.301Z,2.00
2023-02-10T10:47:47.440Z,2.00
2023-02-10T10:50:20.917Z,2.00
2023-02-10T10:52:53.354Z,2.00
2023-02-10T10:55:29.278Z,2.10
2023-02-10T10:58:05.280Z,2.10
2023-02-10T11:00:36.642Z,2.10
2023-02-10T11:03:06.662Z,2.10
2023-02-10T11:05:38.612Z,2.30
2023-02-10T11:08:07.773Z,2.30
2023-02-10T11:10:55.101Z,2.30
2023-02-10T11:13:29.057Z,2.30
2023-02-10T11:16:26.171Z,2.40
2023-02-10T11:19:00.831Z,2.40
2023-02-10T11:21:38.979Z,2.40
2023-02-10T11:24:20.209Z,2.30
2023-02-10T11:27:05.308Z,2.30
2023-02-10T11:29:35.468Z,2.30
2023-02-10T11:32:03.035Z,2.30
2023-02-10T11:34:39.524Z,2.40
2023-02-10T11:37:20.737Z,2.50
2023-02-10T11:39:48.729Z,2.60
2023-02-10T11:42:24.226Z,2.70
2023-02-10T11:45:16.474Z,2.80
2023-02-10T11:47:47.426Z,2.80
2023-02-10T11:50:26.689Z,2.90
2023-02-10T11:52:54.264Z,3.00
2023-02-10T11:55:28.687Z,3.00
2023-02-10T11:58:37.866Z,3.10
2023-02-10T12:01:10.744Z,3.20
2023-02-10T12:03:56.844Z,3.10
2023-02-10T12:06:59.468Z,3.10
2023-02-10T12:09:37.549Z,3.10
2023-02-10T12:12:16.832Z,3.30
2023-02-10T12:14:53.315Z,3.30
2023-02-10T12:17:38.651Z,3.20
2023-02-10T12:20:08.606Z,3.20
2023-02-10T12:23:03.906Z,3.30
2023-02-10T12:25:50.010Z,3.40
2023-02-10T12:28:43.482Z,3.50
2023-02-10T12:31:29.433Z,3.50
2023-02-10T12:34:11.714Z,3.60
2023-02-10T12:36:41.981Z,3.60
2023-02-10T12:39:24.051Z,3.60
2023-02-10T12:42:06.139Z,3.80
2023-02-10T12:44:42.072Z,3.90
2023-02-10T12:47:12.674Z,4.00
2023-02-10T12:49:49.077Z,4.20
2023-02-10T12:52:40.805Z,4.30
2023-02-10T12:55:11.319Z,4.50
2023-02-10T12:58:00.257Z,4.60
2023-02-10T13:00:37.136Z,4.80
2023-02-10T13:03:10.174Z,5.00
2023-02-10T13:05:44.819Z,5.10
2023-02-10T13:08:35.082Z,5.30
2023-02-10T13:11:34.109Z,5.70
2023-02-10T13:14:17.858Z,6.50
2023-02-10T13:16:55.650Z,7.40
2023-02-10T13:19:40.696Z,9.70
2023-02-10T13:22:18.609Z,11.60
2023-02-10T13:24:59.691Z,13.70
2023-02-10T13:27:30.102Z,16.00
2023-02-10T13:30:22.725Z,18.20
2023-02-10T13:32:55.765Z,19.50
2023-02-10T13:35:26.532Z,20.00
2023-02-10T13:37:56.229Z,21.10
2023-02-10T13:40:34.467Z,21.90
2023-02-10T13:43:04.997Z,22.40
2023-02-10T13:45:35.582Z,22.30
2023-02-10T13:48:29.223Z,20.80
2023-02-10T13:51:08.564Z,21.40
2023-02-10T13:53:35.851Z,21.40
2023-02-10T13:56:05.176Z,20.80
2023-02-10T13:58:34.686Z,20.60
2023-02-10T14:01:03.036Z,20.50
2023-02-10T14:03:34.276Z,20.30
2023-02-10T14:06:13.827Z,20.20
2023-02-10T14:08:59.779Z,19.20
2023-02-10T14:11:43.194Z,19.60
2023-02-10T14:14:28.630Z,19.70
2023-02-10T14:17:08.634Z,19.80
2023-02-10T14:19:43.360Z,18.70
2023-02-10T14:22:39.525Z,18.40
2023-02-10T14:25:24.575Z,17.70
2023-02-10T14:27:55.850Z,16.90
2023-02-10T14:30:39.241Z,16.40
2023-02-10T14:33:19.042Z,16.00
2023-02-10T14:35:51.638Z,14.60
2023-02-10T14:38:31.194Z,13.30
2023-02-10T14:41:08.840Z,12.00
2023-02-10T14:43:43.166Z,11.70
2023-02-10T14:46:19.414Z,11.50
2023-02-10T14:48:47.057Z,11.20
2023-02-10T14:51:23.971Z,10.70
2023-02-10T14:53:51.460Z,10.60
2023-02-10T14:56:29.398Z,10.50
2023-02-10T14:58:56.813Z,10.40
2023-02-10T15:01:28.835Z,10.10
2023-02-10T15:03:58.665Z,10.00
2023-02-10T15:06:30.724Z,9.70
2023-02-10T15:09:04.661Z,9.20
2023-02-10T15:12:15.296Z,9.10
2023-02-10T15:14:44.689Z,8.70
2023-02-10T15:17:21.734Z,8.50
2023-02-10T15:20:00.377Z,8.20
2023-02-10T15:22:33.658Z,7.90
2023-02-10T15:25:39.298Z,7.50
2023-02-10T15:28:09.519Z,7.30
2023-02-10T15:30:43.427Z,7.20
2023-02-10T15:33:24.504Z,7.10
2023-02-10T15:36:04.813Z,6.70
2023-02-10T15:38:32.963Z,6.60
2023-02-10T15:41:00.175Z,6.50
2023-02-10T15:43:32.587Z,6.40
2023-02-10T15:46:19.806Z,6.30
2023-02-10T15:48:47.152Z,6.20
2023-02-10T15:51:25.582Z,6.00
2023-02-10T15:53:58.197Z,5.80
2023-02-10T15:56:25.880Z,5.70
2023-02-10T15:58:53.469Z,5.50
2023-02-10T16:01:20.795Z,5.30
2023-02-10T16:03:48.078Z,5.10
2023-02-10T16:06:17.243Z,5.00
2023-02-10T16:08:45.604Z,4.80
2023-02-10T16:11:13.678Z,4.80
2023-02-10T16:13:40.942Z,4.70
2023-02-10T16:16:16.183Z,4.60
2023-02-10T16:18:44.123Z,4.50
2023-02-10T16:21:15.024Z,4.50
2023-02-10T16:23:43.059Z,4.40
2023-02-10T16:26:23.035Z,4.40
2023-02-10T16:28:51.378Z,4.30
2023-02-10T16:31:22.552Z,4.30
2023-02-10T16:33:50.564Z,4.20
2023-02-10T16:36:18.725Z,4.10
2023-02-10T16:38:51.145Z,4.10
2023-02-10T16:41:20.056Z,4.10
2023-02-10T16:43:47.429Z,4.00
2023-02-10T16:46:16.750Z,4.00
2023-02-10T16:48:44.089Z,4.00
2023-02-10T16:51:11.222Z,4.00
2023-02-10T16:53:38.576Z,3.90
2023-02-10T16:56:06.612Z,3.90
2023-02-10T16:58:34.219Z,3.90
2023-02-10T17:01:01.830Z,3.90
2023-02-10T17:03:35.457Z,3.80
2023-02-10T17:06:02.734Z,3.70
2023-02-10T17:08:29.941Z,3.70
2023-02-10T17:10:57.330Z,3.70
2023-02-10T17:13:27.894Z,3.70
2023-02-10T17:15:55.579Z,3.60
2023-02-10T17:18:23.127Z,3.60
2023-02-10T17:20:50.676Z,3.60
2023-02-10T17:23:21.333Z,3.60
2023-02-10T17:25:49.308Z,3.50
2023-02-10T17:28:18.158Z,3.40
2023-02-10T17:30:47.075Z,3.40
2023-02-10T17:33:25.633Z,3.30
2023-02-10T17:35:53.178Z,3.30
2023-02-10T17:38:38.838Z,3.30
2023-02-10T17:41:08.465Z,3.40
2023-02-10T17:43:39.018Z,3.40
2023-02-10T17:46:06.273Z,3.30
2023-02-10T17:48:33.615Z,3.20
2023-02-10T17:51:04.878Z,3.20
2023-02-10T17:53:36.495Z,3.20
2023-02-10T17:56:04.127Z,3.10
2023-02-10T17:58:33.204Z,3.10
2023-02-10T18:01:00.884Z,3.10
2023-02-10T18:03:28.427Z,3.20
2023-02-10T18:05:57.307Z,3.00
2023-02-10T18:08:24.493Z,2.90
2023-02-10T18:10:51.968Z,2.90
2023-02-10T18:13:19.626Z,3.00
2023-02-10T18:15:47.161Z,3.10
2023-02-10T18:18:14.828Z,3.10
2023-02-10T18:20:44.638Z,3.00
2023-02-10T18:23:15.186Z,3.00
2023-02-10T18:25:44.690Z,2.90
2023-02-10T18:28:12.812Z,2.80
2023-02-10T18:30:40.598Z,2.80
2023-02-10T18:33:07.880Z,2.80
2023-02-10T18:35:36.169Z,2.80
2023-02-10T18:38:08.179Z,2.70
2023-02-10T18:40:37.599Z,2.70
2023-02-10T18:43:05.197Z,2.70
2023-02-10T18:45:32.605Z,2.70
2023-02-10T18:47:59.938Z,2.70
2023-02-10T18:50:27.094Z,2.70
2023-02-10T18:52:55.553Z,2.80
2023-02-10T18:55:22.886Z,2.80
2023-02-10T18:57:50.095Z,2.80
2023-02-10T19:00:17.781Z,2.80
2023-02-10T19:02:56.332Z,2.80
2023-02-10T19:05:24.292Z,2.80
2023-02-10T19:07:53.597Z,2.70
2023-02-10T19:10:24.109Z,2.70
2023-02-10T19:12:52.110Z,2.60
2023-02-10T19:15:19.432Z,2.50
2023-02-10T19:17:47.222Z,2.50
2023-02-10T19:20:14.634Z,2.60
2023-02-10T19:22:41.906Z,2.60
2023-02-10T19:25:09.439Z,2.60
2023-02-10T19:27:36.858Z,2.50
2023-02-10T19:30:04.521Z,2.40
2023-02-10T19:32:31.699Z,2.40
2023-02-10T19:34:58.938Z,2.40
2023-02-10T19:37:26.273Z,2.40
2023-02-10T19:39:53.543Z,2.40
2023-02-10T19:42:20.806Z,2.40
2023-02-10T19:44:48.730Z,2.30
2023-02-10T19:47:16.021Z,2.30
2023-02-10T19:49:43.278Z,2.40
2023-02-10T19:52:10.523Z,2.30
2023-02-10T19:54:37.750Z,2.20
2023-02-10T19:57:05.128Z,2.30
2023-02-10T19:59:32.411Z,2.20
2023-02-10T20:01:59.693Z,2.20
2023-02-10T20:04:26.976Z,2.30
2023-02-10T20:06:54.382Z,2.40
2023-02-10T20:09:21.762Z,2.40
2023-02-10T20:11:49.088Z,2.30
2023-02-10T20:14:16.318Z,2.20
2023-02-10T20:16:45.592Z,2.20
2023-02-10T20:19:15.107Z,2.10
2023-02-10T20:21:42.957Z,2.10
2023-02-10T20:24:10.688Z,2.00
2023-02-10T20:26:39.068Z,2.10
2023-02-10T20:29:07.391Z,2.00
2023-02-10T20:31:34.744Z,2.00
2023-02-10T20:34:01.996Z,1.90
2023-02-10T20:36:29.457Z,2.00
2023-02-10T20:39:01.721Z,1.90
2023-02-10T20:41:28.969Z,2.00
2023-02-10T20:43:56.415Z,1.90
2023-02-10T20:46:27.703Z,1.80
2023-02-10T20:48:55.046Z,1.80
2023-02-10T20:51:22.338Z,1.70
2023-02-10T20:53:51.720Z,1.70
2023-02-10T20:56:20.103Z,1.70
2023-02-10T20:58:48.170Z,1.70
2023-02-10T21:01:17.466Z,1.70
2023-02-10T21:03:45.273Z,1.80
2023-02-10T21:06:23.316Z,1.90
2023-02-10T21:08:53.516Z,1.90
2023-02-10T21:11:23.183Z,1.80
2023-02-10T21:13:50.925Z,1.80
2023-02-10T21:16:19.715Z,1.80
2023-02-10T21:18:47.424Z,1.80
2023-02-10T21:21:16.435Z,1.70
2023-02-10T21:23:43.892Z,1.70
2023-02-10T21:26:11.729Z,1.70
2023-02-10T21:28:48.182Z,1.70
2023-02-10T21:31:22.895Z,1.80
2023-02-10T21:33:50.402Z,1.80
2023-02-10T21:36:23.997Z,1.80
2023-02-10T21:38:51.586Z,1.80
2023-02-10T21:41:40.121Z,1.70
2023-02-10T21:44:17.772Z,1.70
2023-02-10T21:46:47.875Z,1.70
2023-02-10T21:49:16.722Z,1.70
2023-02-10T21:51:44.540Z,1.70
2023-02-10T21:54:13.213Z,1.70
2023-02-10T21:56:41.256Z,1.70
2023-02-10T21:59:09.603Z,1.70
2023-02-10T22:01:37.300Z,1.70
2023-02-10T22:04:05.744Z,1.70
2023-02-10T22:06:34.617Z,1.70
2023-02-10T22:09:02.818Z,1.70
2023-02-10T22:11:30.057Z,1.60
2023-02-10T22:13:57.307Z,1.60
2023-02-10T22:16:24.739Z,1.50
2023-02-10T22:18:51.977Z,1.50
2023-02-10T22:21:25.050Z,1.50
2023-02-10T22:23:52.289Z,1.40
2023-02-10T22:26:21.658Z,1.40
2023-02-10T22:28:50.412Z,1.40
2023-02-10T22:31:26.537Z,1.30
2023-02-10T22:33:57.211Z,1.30
2023-02-10T22:36:25.690Z,1.20
2023-02-10T22:38:53.782Z,1.00
2023-02-10T22:41:24.030Z,1.00
2023-02-10T22:43:51.429Z,0.90
2023-02-10T22:46:18.927Z,1.00
2023-02-10T22:48:49.901Z,1.00
2023-02-10T22:51:26.381Z,1.00
2023-02-10T22:54:14.244Z,1.10
2023-02-10T22:56:42.954Z,1.20
2023-02-10T22:59:12.210Z,1.30
2023-02-10T23:01:42.692Z,1.30
2023-02-10T23:04:12.705Z,1.30
2023-02-10T23:06:40.595Z,1.20
2023-02-10T23:09:09.534Z,1.30
2023-02-10T23:11:40.298Z,1.30
2023-02-10T23:14:07.592Z,1.30
2023-02-10T23:16:34.875Z,1.30
2023-02-10T23:19:02.112Z,1.30
2023-02-10T23:21:29.499Z,1.20
2023-02-10T23:23:57.191Z,1.20
2023-02-10T23:26:28.076Z,1.10
2023-02-10T23:28:57.730Z,1.10
2023-02-10T23:31:25.704Z,1.00
2023-02-10T23:33:56.715Z,0.90
2023-02-10T23:36:24.932Z,0.70
2023-02-10T23:38:52.902Z,0.70
2023-02-10T23:41:21.266Z,0.80
2023-02-10T23:43:48.589Z,0.80
2023-02-10T23:46:16.646Z,0.80
2023-02-10T23:48:44.921Z,0.80
2023-02-10T23:51:15.967Z,0.80
2023-02-10T23:53:44.097Z,0.80
2023-02-10T23:56:14.212Z,0.70
2023-02-10T23:58:41.922Z,0.70
